sensor_id;sensor_type;location;lat;lon;timestamp;P1;durP1;ratioP1;P2;durP2;ratioP2
41221;SDS011;26952;42.884;23.918;2022-09-13T00:00:19;51.35;;;48.00;;
41221;SDS011;26952;42.884;23.918;2022-09-13T00:02:44;39.67;;;36.60;;
41221;SDS011;26952;42.884;23.918;2022-09-13T00:05:09;34.10;;;32.03;;
41221;SDS011;26952;42.884;23.918;2022-09-13T00:07:35;43.42;;;40.75;;
41221;SDS011;26952;42.884;23.918;2022-09-13T00:10:00;44.00;;;41.47;;
41221;SDS011;26952;42.884;23.918;2022-09-13T00:12:26;46.75;;;43.58;;
41221;SDS011;26952;42.884;23.918;2022-09-13T00:14:51;41.58;;;39.03;;
41221;SDS011;26952;42.884;23.918;2022-09-13T00:17:17;40.08;;;37.70;;
41221;SDS011;26952;42.884;23.918;2022-09-13T00:19:42;37.95;;;35.85;;
41221;SDS011;26952;42.884;23.918;2022-09-13T00:22:08;33.33;;;31.20;;
41221;SDS011;26952;42.884;23.918;2022-09-13T00:24:33;33.55;;;31.33;;
41221;SDS011;26952;42.884;23.918;2022-09-13T00:26:59;32.17;;;29.92;;
41221;SDS011;26952;42.884;23.918;2022-09-13T00:29:25;35.15;;;32.20;;
41221;SDS011;26952;42.884;23.918;2022-09-13T00:31:51;34.47;;;31.83;;
41221;SDS011;26952;42.884;23.918;2022-09-13T00:34:17;31.35;;;29.20;;
41221;SDS011;26952;42.884;23.918;2022-09-13T00:36:42;23.73;;;22.38;;
41221;SDS011;26952;42.884;23.918;2022-09-13T00:39:08;26.05;;;24.65;;
41221;SDS011;26952;42.884;23.918;2022-09-13T00:41:34;26.50;;;24.85;;
41221;SDS011;26952;42.884;23.918;2022-09-13T00:44:00;215.77;;;135.77;;
41221;SDS011;26952;42.884;23.918;2022-09-13T00:48:52;52.17;;;47.67;;
41221;SDS011;26952;42.884;23.918;2022-09-13T00:51:24;44.25;;;40.65;;
41221;SDS011;26952;42.884;23.918;2022-09-13T00:53:51;92.85;;;83.63;;
41221;SDS011;26952;42.884;23.918;2022-09-13T00:56:24;56.30;;;52.78;;
41221;SDS011;26952;42.884;23.918;2022-09-13T00:59:05;46.15;;;43.22;;
41221;SDS011;26952;42.884;23.918;2022-09-13T01:01:39;48.88;;;45.83;;
41221;SDS011;26952;42.884;23.918;2022-09-13T01:04:08;44.25;;;41.80;;
41221;SDS011;26952;42.884;23.918;2022-09-13T01:06:35;49.17;;;46.35;;
41221;SDS011;26952;42.884;23.918;2022-09-13T01:09:02;44.75;;;42.25;;
41221;SDS011;26952;42.884;23.918;2022-09-13T01:11:38;51.72;;;49.03;;
41221;SDS011;26952;42.884;23.918;2022-09-13T01:16:35;24.73;;;22.85;;
41221;SDS011;26952;42.884;23.918;2022-09-13T01:19:01;37.60;;;35.55;;
41221;SDS011;26952;42.884;23.918;2022-09-13T01:35:05;46.35;;;43.45;;
41221;SDS011;26952;42.884;23.918;2022-09-13T01:37:50;39.20;;;36.53;;
41221;SDS011;26952;42.884;23.918;2022-09-13T01:40:28;45.45;;;42.72;;
41221;SDS011;26952;42.884;23.918;2022-09-13T01:46:29;33.55;;;31.70;;
41221;SDS011;26952;42.884;23.918;2022-09-13T01:49:24;33.05;;;31.13;;
41221;SDS011;26952;42.884;23.918;2022-09-13T01:54:44;55.72;;;52.22;;
41221;SDS011;26952;42.884;23.918;2022-09-13T02:00:07;55.33;;;52.45;;
41221;SDS011;26952;42.884;23.918;2022-09-13T02:02:38;62.40;;;59.08;;
41221;SDS011;26952;42.884;23.918;2022-09-13T02:05:18;74.50;;;70.50;;
41221;SDS011;26952;42.884;23.918;2022-09-13T02:07:56;64.32;;;60.80;;
41221;SDS011;26952;42.884;23.918;2022-09-13T02:12:53;61.72;;;58.00;;
41221;SDS011;26952;42.884;23.918;2022-09-13T02:15:23;68.03;;;64.15;;
41221;SDS011;26952;42.884;23.918;2022-09-13T02:17:57;66.10;;;62.42;;
41221;SDS011;26952;42.884;23.918;2022-09-13T02:20:34;58.90;;;55.65;;
41221;SDS011;26952;42.884;23.918;2022-09-13T02:23:04;59.35;;;56.13;;
41221;SDS011;26952;42.884;23.918;2022-09-13T02:25:34;55.70;;;52.65;;
41221;SDS011;26952;42.884;23.918;2022-09-13T02:28:02;68.18;;;64.30;;
41221;SDS011;26952;42.884;23.918;2022-09-13T02:30:32;69.07;;;65.47;;
41221;SDS011;26952;42.884;23.918;2022-09-13T02:33:17;58.70;;;55.47;;
41221;SDS011;26952;42.884;23.918;2022-09-13T02:35:52;59.85;;;56.60;;
41221;SDS011;26952;42.884;23.918;2022-09-13T02:38:36;65.60;;;61.97;;
41221;SDS011;26952;42.884;23.918;2022-09-13T02:43:42;52.70;;;49.78;;
41221;SDS011;26952;42.884;23.918;2022-09-13T02:46:19;51.10;;;47.90;;
41221;SDS011;26952;42.884;23.918;2022-09-13T02:49:37;46.38;;;43.72;;
41221;SDS011;26952;42.884;23.918;2022-09-13T02:57:25;49.55;;;46.92;;
41221;SDS011;26952;42.884;23.918;2022-09-13T02:59:51;40.95;;;38.75;;
41221;SDS011;26952;42.884;23.918;2022-09-13T03:02:18;43.13;;;40.47;;
41221;SDS011;26952;42.884;23.918;2022-09-13T03:04:49;54.13;;;51.08;;
41221;SDS011;26952;42.884;23.918;2022-09-13T03:07:15;61.08;;;57.83;;
41221;SDS011;26952;42.884;23.918;2022-09-13T03:09:53;61.90;;;58.60;;
41221;SDS011;26952;42.884;23.918;2022-09-13T03:12:42;58.92;;;55.63;;
41221;SDS011;26952;42.884;23.918;2022-09-13T03:17:52;64.25;;;60.70;;
41221;SDS011;26952;42.884;23.918;2022-09-13T03:34:44;48.05;;;45.15;;
41221;SDS011;26952;42.884;23.918;2022-09-13T03:43:30;36.78;;;34.45;;
41221;SDS011;26952;42.884;23.918;2022-09-13T03:46:01;26.30;;;24.70;;
41221;SDS011;26952;42.884;23.918;2022-09-13T03:48:31;26.13;;;24.65;;
41221;SDS011;26952;42.884;23.918;2022-09-13T03:51:01;35.63;;;33.20;;
41221;SDS011;26952;42.884;23.918;2022-09-13T03:53:28;41.92;;;39.10;;
41221;SDS011;26952;42.884;23.918;2022-09-13T03:55:56;39.00;;;36.60;;
41221;SDS011;26952;42.884;23.918;2022-09-13T03:58:21;46.75;;;44.30;;
41221;SDS011;26952;42.884;23.918;2022-09-13T04:00:49;53.35;;;50.50;;
41221;SDS011;26952;42.884;23.918;2022-09-13T04:03:16;67.88;;;63.85;;
41221;SDS011;26952;42.884;23.918;2022-09-13T04:05:42;70.32;;;66.47;;
41221;SDS011;26952;42.884;23.918;2022-09-13T04:08:07;76.20;;;72.15;;
41221;SDS011;26952;42.884;23.918;2022-09-13T04:10:33;69.25;;;65.53;;
41221;SDS011;26952;42.884;23.918;2022-09-13T04:13:00;70.93;;;67.32;;
41221;SDS011;26952;42.884;23.918;2022-09-13T04:15:26;75.45;;;71.50;;
41221;SDS011;26952;42.884;23.918;2022-09-13T04:17:52;75.65;;;71.70;;
41221;SDS011;26952;42.884;23.918;2022-09-13T04:20:18;85.50;;;80.93;;
41221;SDS011;26952;42.884;23.918;2022-09-13T04:22:54;84.03;;;79.60;;
41221;SDS011;26952;42.884;23.918;2022-09-13T04:25:20;84.22;;;80.03;;
41221;SDS011;26952;42.884;23.918;2022-09-13T04:27:47;94.63;;;89.10;;
41221;SDS011;26952;42.884;23.918;2022-09-13T04:30:13;84.20;;;79.60;;
41221;SDS011;26952;42.884;23.918;2022-09-13T04:32:40;70.10;;;65.85;;
41221;SDS011;26952;42.884;23.918;2022-09-13T04:35:08;78.40;;;74.22;;
41221;SDS011;26952;42.884;23.918;2022-09-13T04:37:33;86.07;;;81.40;;
41221;SDS011;26952;42.884;23.918;2022-09-13T04:39:59;84.45;;;79.93;;
41221;SDS011;26952;42.884;23.918;2022-09-13T04:42:24;85.82;;;81.18;;
41221;SDS011;26952;42.884;23.918;2022-09-13T04:44:50;92.65;;;87.50;;
41221;SDS011;26952;42.884;23.918;2022-09-13T04:47:15;93.25;;;88.43;;
41221;SDS011;26952;42.884;23.918;2022-09-13T04:49:40;86.65;;;82.15;;
41221;SDS011;26952;42.884;23.918;2022-09-13T04:52:06;82.75;;;78.43;;
41221;SDS011;26952;42.884;23.918;2022-09-13T04:54:32;90.45;;;85.40;;
41221;SDS011;26952;42.884;23.918;2022-09-13T04:56:57;88.00;;;83.45;;
41221;SDS011;26952;42.884;23.918;2022-09-13T04:59:25;81.20;;;76.22;;
41221;SDS011;26952;42.884;23.918;2022-09-13T05:01:50;99.90;;;94.45;;
41221;SDS011;26952;42.884;23.918;2022-09-13T05:04:16;101.13;;;95.80;;
41221;SDS011;26952;42.884;23.918;2022-09-13T05:06:41;101.55;;;96.07;;
41221;SDS011;26952;42.884;23.918;2022-09-13T05:09:09;98.68;;;93.47;;
41221;SDS011;26952;42.884;23.918;2022-09-13T05:11:37;100.47;;;94.82;;
41221;SDS011;26952;42.884;23.918;2022-09-13T05:14:02;105.45;;;99.95;;
41221;SDS011;26952;42.884;23.918;2022-09-13T05:16:30;100.55;;;95.13;;
41221;SDS011;26952;42.884;23.918;2022-09-13T05:18:57;90.80;;;86.15;;
41221;SDS011;26952;42.884;23.918;2022-09-13T05:21:24;85.13;;;80.40;;
41221;SDS011;26952;42.884;23.918;2022-09-13T05:23:52;86.05;;;81.60;;
41221;SDS011;26952;42.884;23.918;2022-09-13T05:26:18;72.90;;;69.22;;
41221;SDS011;26952;42.884;23.918;2022-09-13T05:28:46;64.93;;;61.58;;
41221;SDS011;26952;42.884;23.918;2022-09-13T05:31:21;69.72;;;66.38;;
41221;SDS011;26952;42.884;23.918;2022-09-13T05:33:57;65.60;;;62.25;;
41221;SDS011;26952;42.884;23.918;2022-09-13T05:36:25;74.03;;;70.40;;
41221;SDS011;26952;42.884;23.918;2022-09-13T05:38:52;77.05;;;73.22;;
41221;SDS011;26952;42.884;23.918;2022-09-13T05:41:18;79.15;;;75.05;;
41221;SDS011;26952;42.884;23.918;2022-09-13T05:43:44;84.38;;;80.25;;
41221;SDS011;26952;42.884;23.918;2022-09-13T05:46:13;89.10;;;84.72;;
41221;SDS011;26952;42.884;23.918;2022-09-13T05:48:40;99.05;;;94.03;;
41221;SDS011;26952;42.884;23.918;2022-09-13T05:51:10;95.95;;;91.18;;
41221;SDS011;26952;42.884;23.918;2022-09-13T05:53:36;84.80;;;80.50;;
41221;SDS011;26952;42.884;23.918;2022-09-13T05:56:04;78.05;;;74.13;;
41221;SDS011;26952;42.884;23.918;2022-09-13T05:58:31;71.43;;;67.78;;
41221;SDS011;26952;42.884;23.918;2022-09-13T06:00:57;77.00;;;73.05;;
41221;SDS011;26952;42.884;23.918;2022-09-13T06:03:23;64.90;;;61.55;;
41221;SDS011;26952;42.884;23.918;2022-09-13T06:05:49;67.25;;;63.80;;
41221;SDS011;26952;42.884;23.918;2022-09-13T06:08:18;62.60;;;59.35;;
41221;SDS011;26952;42.884;23.918;2022-09-13T06:10:51;71.07;;;67.07;;
41221;SDS011;26952;42.884;23.918;2022-09-13T06:13:18;69.88;;;66.28;;
41221;SDS011;26952;42.884;23.918;2022-09-13T06:15:43;65.68;;;62.20;;
41221;SDS011;26952;42.884;23.918;2022-09-13T06:18:08;65.72;;;62.22;;
41221;SDS011;26952;42.884;23.918;2022-09-13T06:20:34;81.93;;;77.63;;
41221;SDS011;26952;42.884;23.918;2022-09-13T06:22:59;75.15;;;71.47;;
41221;SDS011;26952;42.884;23.918;2022-09-13T06:25:24;94.25;;;89.50;;
41221;SDS011;26952;42.884;23.918;2022-09-13T06:27:50;90.63;;;86.03;;
41221;SDS011;26952;42.884;23.918;2022-09-13T06:30:15;79.22;;;75.22;;
41221;SDS011;26952;42.884;23.918;2022-09-13T06:32:41;85.28;;;80.97;;
41221;SDS011;26952;42.884;23.918;2022-09-13T06:35:06;76.63;;;72.78;;
41221;SDS011;26952;42.884;23.918;2022-09-13T06:37:32;90.97;;;86.43;;
41221;SDS011;26952;42.884;23.918;2022-09-13T06:39:58;82.20;;;78.07;;
41221;SDS011;26952;42.884;23.918;2022-09-13T06:42:23;89.90;;;85.35;;
41221;SDS011;26952;42.884;23.918;2022-09-13T06:44:48;106.93;;;101.20;;
41221;SDS011;26952;42.884;23.918;2022-09-13T06:47:14;98.90;;;93.65;;
41221;SDS011;26952;42.884;23.918;2022-09-13T06:49:39;100.85;;;95.45;;
41221;SDS011;26952;42.884;23.918;2022-09-13T06:52:05;101.25;;;96.15;;
41221;SDS011;26952;42.884;23.918;2022-09-13T06:54:30;98.07;;;93.25;;
41221;SDS011;26952;42.884;23.918;2022-09-13T06:56:55;98.78;;;93.53;;
41221;SDS011;26952;42.884;23.918;2022-09-13T06:59:21;90.63;;;86.22;;
41221;SDS011;26952;42.884;23.918;2022-09-13T07:01:46;97.80;;;93.03;;
41221;SDS011;26952;42.884;23.918;2022-09-13T07:04:14;75.32;;;71.57;;
41221;SDS011;26952;42.884;23.918;2022-09-13T07:06:41;89.10;;;84.63;;
41221;SDS011;26952;42.884;23.918;2022-09-13T07:09:12;72.03;;;68.43;;
41221;SDS011;26952;42.884;23.918;2022-09-13T07:11:42;55.13;;;52.33;;
41221;SDS011;26952;42.884;23.918;2022-09-13T07:14:15;45.30;;;42.92;;
41221;SDS011;26952;42.884;23.918;2022-09-13T07:16:43;74.88;;;70.95;;
41221;SDS011;26952;42.884;23.918;2022-09-13T07:21:42;72.82;;;69.07;;
41221;SDS011;26952;42.884;23.918;2022-09-13T07:24:08;73.13;;;69.40;;
41221;SDS011;26952;42.884;23.918;2022-09-13T07:26:34;66.43;;;62.97;;
41221;SDS011;26952;42.884;23.918;2022-09-13T07:29:01;49.33;;;46.72;;
41221;SDS011;26952;42.884;23.918;2022-09-13T07:31:30;44.35;;;41.88;;
41221;SDS011;26952;42.884;23.918;2022-09-13T07:34:01;43.90;;;41.60;;
41221;SDS011;26952;42.884;23.918;2022-09-13T07:36:29;45.65;;;43.40;;
41221;SDS011;26952;42.884;23.918;2022-09-13T07:38:56;52.25;;;49.45;;
41221;SDS011;26952;42.884;23.918;2022-09-13T07:41:23;47.63;;;45.22;;
41221;SDS011;26952;42.884;23.918;2022-09-13T07:43:49;59.00;;;56.10;;
41221;SDS011;26952;42.884;23.918;2022-09-13T07:46:25;55.58;;;52.80;;
41221;SDS011;26952;42.884;23.918;2022-09-13T07:48:53;58.83;;;55.45;;
41221;SDS011;26952;42.884;23.918;2022-09-13T07:51:20;66.32;;;63.13;;
41221;SDS011;26952;42.884;23.918;2022-09-13T07:53:53;54.38;;;51.70;;
41221;SDS011;26952;42.884;23.918;2022-09-13T07:56:22;53.67;;;51.03;;
41221;SDS011;26952;42.884;23.918;2022-09-13T07:58:52;64.43;;;61.17;;
41221;SDS011;26952;42.884;23.918;2022-09-13T08:01:22;58.35;;;55.47;;
41221;SDS011;26952;42.884;23.918;2022-09-13T08:03:53;64.03;;;60.97;;
41221;SDS011;26952;42.884;23.918;2022-09-13T08:06:21;56.03;;;53.35;;
41221;SDS011;26952;42.884;23.918;2022-09-13T08:08:47;55.67;;;53.03;;
41221;SDS011;26952;42.884;23.918;2022-09-13T08:11:15;57.20;;;54.33;;
41221;SDS011;26952;42.884;23.918;2022-09-13T08:13:43;56.35;;;53.65;;
41221;SDS011;26952;42.884;23.918;2022-09-13T08:16:09;56.03;;;53.28;;
41221;SDS011;26952;42.884;23.918;2022-09-13T08:18:34;56.15;;;53.38;;
41221;SDS011;26952;42.884;23.918;2022-09-13T08:21:00;55.47;;;52.75;;
41221;SDS011;26952;42.884;23.918;2022-09-13T08:23:26;58.83;;;56.00;;
41221;SDS011;26952;42.884;23.918;2022-09-13T08:25:52;53.85;;;50.85;;
41221;SDS011;26952;42.884;23.918;2022-09-13T08:28:18;53.67;;;50.97;;
41221;SDS011;26952;42.884;23.918;2022-09-13T08:30:48;51.17;;;48.72;;
41221;SDS011;26952;42.884;23.918;2022-09-13T08:33:14;53.95;;;51.35;;
41221;SDS011;26952;42.884;23.918;2022-09-13T08:35:40;51.45;;;48.75;;
41221;SDS011;26952;42.884;23.918;2022-09-13T08:38:14;53.22;;;50.63;;
41221;SDS011;26952;42.884;23.918;2022-09-13T08:40:39;51.55;;;48.75;;
41221;SDS011;26952;42.884;23.918;2022-09-13T08:45:48;52.65;;;49.72;;
41221;SDS011;26952;42.884;23.918;2022-09-13T08:48:15;53.78;;;51.22;;
41221;SDS011;26952;42.884;23.918;2022-09-13T08:50:44;52.72;;;49.90;;
41221;SDS011;26952;42.884;23.918;2022-09-13T08:53:23;54.92;;;52.08;;
41221;SDS011;26952;42.884;23.918;2022-09-13T08:55:54;51.10;;;48.57;;
41221;SDS011;26952;42.884;23.918;2022-09-13T09:04:08;59.38;;;56.53;;
41221;SDS011;26952;42.884;23.918;2022-09-13T09:06:43;65.32;;;61.97;;
41221;SDS011;26952;42.884;23.918;2022-09-13T09:09:11;74.82;;;71.13;;
41221;SDS011;26952;42.884;23.918;2022-09-13T09:16:59;56.63;;;53.90;;
41221;SDS011;26952;42.884;23.918;2022-09-13T09:19:29;54.10;;;51.35;;
41221;SDS011;26952;42.884;23.918;2022-09-13T09:22:04;57.15;;;54.05;;
41221;SDS011;26952;42.884;23.918;2022-09-13T09:24:43;54.72;;;52.03;;
41221;SDS011;26952;42.884;23.918;2022-09-13T09:27:15;69.30;;;65.90;;
41221;SDS011;26952;42.884;23.918;2022-09-13T09:29:43;62.08;;;58.88;;
41221;SDS011;26952;42.884;23.918;2022-09-13T09:37:29;83.90;;;79.70;;
41221;SDS011;26952;42.884;23.918;2022-09-13T09:39:59;84.35;;;80.20;;
41221;SDS011;26952;42.884;23.918;2022-09-13T09:42:29;82.10;;;78.00;;
41221;SDS011;26952;42.884;23.918;2022-09-13T09:45:02;77.93;;;73.97;;
41221;SDS011;26952;42.884;23.918;2022-09-13T09:47:33;82.55;;;78.65;;
41221;SDS011;26952;42.884;23.918;2022-09-13T09:50:15;87.82;;;83.47;;
41221;SDS011;26952;42.884;23.918;2022-09-13T09:57:53;96.07;;;91.38;;
41221;SDS011;26952;42.884;23.918;2022-09-13T10:00:30;75.75;;;72.13;;
41221;SDS011;26952;42.884;23.918;2022-09-13T10:03:03;65.97;;;62.80;;
41221;SDS011;26952;42.884;23.918;2022-09-13T10:05:32;77.68;;;73.95;;
41221;SDS011;26952;42.884;23.918;2022-09-13T10:08:05;83.80;;;79.78;;
41221;SDS011;26952;42.884;23.918;2022-09-13T10:10:41;94.78;;;89.93;;
41221;SDS011;26952;42.884;23.918;2022-09-13T10:13:15;88.90;;;84.68;;
41221;SDS011;26952;42.884;23.918;2022-09-13T10:15:55;80.88;;;77.00;;
41221;SDS011;26952;42.884;23.918;2022-09-13T10:18:23;101.00;;;96.25;;
41221;SDS011;26952;42.884;23.918;2022-09-13T10:23:26;70.30;;;66.78;;
41221;SDS011;26952;42.884;23.918;2022-09-13T10:26:02;93.15;;;88.70;;
41221;SDS011;26952;42.884;23.918;2022-09-13T10:31:40;93.78;;;89.32;;
41221;SDS011;26952;42.884;23.918;2022-09-13T10:34:19;64.90;;;61.50;;
41221;SDS011;26952;42.884;23.918;2022-09-13T10:39:17;54.78;;;52.05;;
41221;SDS011;26952;42.884;23.918;2022-09-13T10:41:50;78.43;;;74.63;;
41221;SDS011;26952;42.884;23.918;2022-09-13T10:44:23;102.43;;;97.60;;
41221;SDS011;26952;42.884;23.918;2022-09-13T10:47:03;108.82;;;103.55;;
41221;SDS011;26952;42.884;23.918;2022-09-13T10:50:09;76.80;;;72.97;;
41221;SDS011;26952;42.884;23.918;2022-09-13T10:52:37;73.18;;;69.63;;
41221;SDS011;26952;42.884;23.918;2022-09-13T10:57:45;58.85;;;56.03;;
41221;SDS011;26952;42.884;23.918;2022-09-13T11:00:19;46.60;;;44.25;;
41221;SDS011;26952;42.884;23.918;2022-09-13T11:06:14;63.10;;;59.88;;
41221;SDS011;26952;42.884;23.918;2022-09-13T11:11:21;50.42;;;47.75;;
41221;SDS011;26952;42.884;23.918;2022-09-13T11:17:07;43.78;;;41.67;;
41221;SDS011;26952;42.884;23.918;2022-09-13T11:25:59;35.78;;;33.97;;
41221;SDS011;26952;42.884;23.918;2022-09-13T11:29:02;33.03;;;31.52;;
41221;SDS011;26952;42.884;23.918;2022-09-13T11:32:12;41.10;;;39.08;;
41221;SDS011;26952;42.884;23.918;2022-09-13T11:34:30;38.80;;;37.00;;
41221;SDS011;26952;42.884;23.918;2022-09-13T11:39:36;49.42;;;47.05;;
41221;SDS011;26952;42.884;23.918;2022-09-13T11:42:40;42.30;;;40.30;;
41221;SDS011;26952;42.884;23.918;2022-09-13T11:45:25;39.08;;;37.22;;
41221;SDS011;26952;42.884;23.918;2022-09-13T11:56:30;43.45;;;41.38;;
41221;SDS011;26952;42.884;23.918;2022-09-13T11:59:05;49.10;;;46.80;;
41221;SDS011;26952;42.884;23.918;2022-09-13T12:01:35;50.88;;;48.47;;
41221;SDS011;26952;42.884;23.918;2022-09-13T12:06:59;39.05;;;37.22;;
41221;SDS011;26952;42.884;23.918;2022-09-13T12:09:28;45.25;;;42.85;;
41221;SDS011;26952;42.884;23.918;2022-09-13T12:12:02;51.70;;;49.25;;
41221;SDS011;26952;42.884;23.918;2022-09-13T12:14:31;38.13;;;36.22;;
41221;SDS011;26952;42.884;23.918;2022-09-13T12:17:11;40.42;;;38.42;;
41221;SDS011;26952;42.884;23.918;2022-09-13T12:19:53;35.08;;;33.38;;
41221;SDS011;26952;42.884;23.918;2022-09-13T12:22:23;37.65;;;35.88;;
41221;SDS011;26952;42.884;23.918;2022-09-13T12:24:54;34.70;;;33.03;;
41221;SDS011;26952;42.884;23.918;2022-09-13T12:27:24;32.08;;;30.48;;
41221;SDS011;26952;42.884;23.918;2022-09-13T12:29:56;33.47;;;31.73;;
41221;SDS011;26952;42.884;23.918;2022-09-13T12:32:30;33.75;;;32.20;;
41221;SDS011;26952;42.884;23.918;2022-09-13T12:35:00;32.65;;;31.13;;
41221;SDS011;26952;42.884;23.918;2022-09-13T12:48:16;36.13;;;34.38;;
41221;SDS011;26952;42.884;23.918;2022-09-13T13:01:29;43.33;;;41.30;;
41221;SDS011;26952;42.884;23.918;2022-09-13T13:06:56;43.28;;;41.08;;
41221;SDS011;26952;42.884;23.918;2022-09-13T13:12:07;38.88;;;37.05;;
41221;SDS011;26952;42.884;23.918;2022-09-13T13:14:51;51.70;;;49.08;;
41221;SDS011;26952;42.884;23.918;2022-09-13T13:32:24;46.60;;;44.42;;
41221;SDS011;26952;42.884;23.918;2022-09-13T13:34:28;43.55;;;41.45;;
41221;SDS011;26952;42.884;23.918;2022-09-13T13:39:40;55.35;;;52.70;;
41221;SDS011;26952;42.884;23.918;2022-09-13T13:42:26;56.60;;;53.72;;
41221;SDS011;26952;42.884;23.918;2022-09-13T13:49:53;57.75;;;54.90;;
41221;SDS011;26952;42.884;23.918;2022-09-13T13:52:38;47.58;;;45.22;;
41221;SDS011;26952;42.884;23.918;2022-09-13T13:55:28;42.55;;;40.47;;
41221;SDS011;26952;42.884;23.918;2022-09-13T14:00:55;63.55;;;60.53;;
41221;SDS011;26952;42.884;23.918;2022-09-13T14:06:01;69.72;;;66.07;;
41221;SDS011;26952;42.884;23.918;2022-09-13T14:08:50;73.90;;;70.28;;
41221;SDS011;26952;42.884;23.918;2022-09-13T14:19:54;82.97;;;79.10;;
41221;SDS011;26952;42.884;23.918;2022-09-13T14:22:27;89.82;;;85.55;;
41221;SDS011;26952;42.884;23.918;2022-09-13T14:24:57;97.22;;;92.57;;
41221;SDS011;26952;42.884;23.918;2022-09-13T14:27:36;90.28;;;85.88;;
41221;SDS011;26952;42.884;23.918;2022-09-13T14:30:38;101.30;;;95.88;;
41221;SDS011;26952;42.884;23.918;2022-09-13T14:32:59;78.15;;;74.32;;
41221;SDS011;26952;42.884;23.918;2022-09-13T14:35:35;90.55;;;86.22;;
41221;SDS011;26952;42.884;23.918;2022-09-13T14:38:18;93.03;;;88.60;;
41221;SDS011;26952;42.884;23.918;2022-09-13T14:40:50;95.63;;;90.97;;
41221;SDS011;26952;42.884;23.918;2022-09-13T14:43:21;95.93;;;91.30;;
41221;SDS011;26952;42.884;23.918;2022-09-13T14:45:52;92.97;;;88.25;;
41221;SDS011;26952;42.884;23.918;2022-09-13T14:48:28;104.85;;;99.88;;
41221;SDS011;26952;42.884;23.918;2022-09-13T14:50:55;100.20;;;95.22;;
41221;SDS011;26952;42.884;23.918;2022-09-13T14:53:28;98.32;;;93.13;;
41221;SDS011;26952;42.884;23.918;2022-09-13T14:55:58;94.68;;;90.18;;
41221;SDS011;26952;42.884;23.918;2022-09-13T14:58:29;92.90;;;88.53;;
41221;SDS011;26952;42.884;23.918;2022-09-13T15:01:07;92.55;;;88.15;;
41221;SDS011;26952;42.884;23.918;2022-09-13T15:03:35;87.63;;;83.45;;
41221;SDS011;26952;42.884;23.918;2022-09-13T15:06:01;83.05;;;78.45;;
41221;SDS011;26952;42.884;23.918;2022-09-13T15:10:58;68.50;;;65.22;;
41221;SDS011;26952;42.884;23.918;2022-09-13T15:13:29;68.53;;;65.18;;
41221;SDS011;26952;42.884;23.918;2022-09-13T15:15:55;69.15;;;65.82;;
41221;SDS011;26952;42.884;23.918;2022-09-13T15:18:23;59.55;;;56.08;;
41221;SDS011;26952;42.884;23.918;2022-09-13T15:20:59;52.00;;;49.25;;
41221;SDS011;26952;42.884;23.918;2022-09-13T15:23:30;54.75;;;51.95;;
41221;SDS011;26952;42.884;23.918;2022-09-13T15:26:07;53.15;;;49.95;;
41221;SDS011;26952;42.884;23.918;2022-09-13T15:31:09;49.60;;;47.00;;
41221;SDS011;26952;42.884;23.918;2022-09-13T15:33:43;58.38;;;55.40;;
41221;SDS011;26952;42.884;23.918;2022-09-13T15:38:53;51.53;;;47.45;;
41221;SDS011;26952;42.884;23.918;2022-09-13T15:41:28;40.55;;;38.33;;
41221;SDS011;26952;42.884;23.918;2022-09-13T15:43:55;42.05;;;39.92;;
41221;SDS011;26952;42.884;23.918;2022-09-13T15:46:22;43.55;;;41.47;;
41221;SDS011;26952;42.884;23.918;2022-09-13T15:48:51;47.05;;;44.65;;
41221;SDS011;26952;42.884;23.918;2022-09-13T15:51:19;52.10;;;49.45;;
41221;SDS011;26952;42.884;23.918;2022-09-13T15:53:46;49.70;;;47.30;;
41221;SDS011;26952;42.884;23.918;2022-09-13T15:56:12;57.45;;;54.60;;
41221;SDS011;26952;42.884;23.918;2022-09-13T15:58:42;59.38;;;56.35;;
41221;SDS011;26952;42.884;23.918;2022-09-13T16:01:09;60.00;;;56.97;;
41221;SDS011;26952;42.884;23.918;2022-09-13T16:03:37;60.50;;;57.67;;
41221;SDS011;26952;42.884;23.918;2022-09-13T16:06:03;56.97;;;54.25;;
41221;SDS011;26952;42.884;23.918;2022-09-13T16:08:31;66.97;;;63.65;;
41221;SDS011;26952;42.884;23.918;2022-09-13T16:10:56;56.65;;;53.88;;
41221;SDS011;26952;42.884;23.918;2022-09-13T16:13:21;59.50;;;56.33;;
41221;SDS011;26952;42.884;23.918;2022-09-13T16:15:47;59.70;;;56.75;;
41221;SDS011;26952;42.884;23.918;2022-09-13T16:18:13;61.25;;;58.13;;
41221;SDS011;26952;42.884;23.918;2022-09-13T16:20:40;62.95;;;59.83;;
41221;SDS011;26952;42.884;23.918;2022-09-13T16:23:06;69.25;;;64.63;;
41221;SDS011;26952;42.884;23.918;2022-09-13T16:25:32;60.58;;;57.40;;
41221;SDS011;26952;42.884;23.918;2022-09-13T16:27:58;80.60;;;73.38;;
41221;SDS011;26952;42.884;23.918;2022-09-13T16:30:24;69.97;;;65.95;;
41221;SDS011;26952;42.884;23.918;2022-09-13T16:32:54;73.28;;;69.63;;
41221;SDS011;26952;42.884;23.918;2022-09-13T16:35:20;74.88;;;70.88;;
41221;SDS011;26952;42.884;23.918;2022-09-13T16:37:45;75.68;;;71.75;;
41221;SDS011;26952;42.884;23.918;2022-09-13T16:40:15;63.70;;;60.08;;
41221;SDS011;26952;42.884;23.918;2022-09-13T16:42:41;63.45;;;59.90;;
41221;SDS011;26952;42.884;23.918;2022-09-13T16:45:07;61.53;;;58.22;;
41221;SDS011;26952;42.884;23.918;2022-09-13T16:47:34;54.97;;;52.05;;
41221;SDS011;26952;42.884;23.918;2022-09-13T16:50:00;55.75;;;52.90;;
41221;SDS011;26952;42.884;23.918;2022-09-13T16:52:25;53.72;;;50.83;;
41221;SDS011;26952;42.884;23.918;2022-09-13T16:54:52;58.05;;;55.05;;
41221;SDS011;26952;42.884;23.918;2022-09-13T16:57:18;58.60;;;55.35;;
41221;SDS011;26952;42.884;23.918;2022-09-13T16:59:44;64.93;;;61.55;;
41221;SDS011;26952;42.884;23.918;2022-09-13T17:02:10;61.10;;;57.90;;
41221;SDS011;26952;42.884;23.918;2022-09-13T17:04:36;53.97;;;50.97;;
41221;SDS011;26952;42.884;23.918;2022-09-13T17:07:02;66.65;;;63.03;;
41221;SDS011;26952;42.884;23.918;2022-09-13T17:09:29;69.53;;;65.97;;
41221;SDS011;26952;42.884;23.918;2022-09-13T17:11:56;76.03;;;72.22;;
41221;SDS011;26952;42.884;23.918;2022-09-13T17:14:21;75.68;;;72.00;;
41221;SDS011;26952;42.884;23.918;2022-09-13T17:16:51;84.10;;;80.07;;
41221;SDS011;26952;42.884;23.918;2022-09-13T17:19:19;86.30;;;82.13;;
41221;SDS011;26952;42.884;23.918;2022-09-13T17:21:49;94.28;;;89.50;;
41221;SDS011;26952;42.884;23.918;2022-09-13T17:24:16;96.18;;;91.45;;
41221;SDS011;26952;42.884;23.918;2022-09-13T17:26:41;98.45;;;93.63;;
41221;SDS011;26952;42.884;23.918;2022-09-13T17:29:08;95.85;;;90.78;;
41221;SDS011;26952;42.884;23.918;2022-09-13T17:31:36;89.75;;;84.93;;
41221;SDS011;26952;42.884;23.918;2022-09-13T17:34:01;76.47;;;72.63;;
41221;SDS011;26952;42.884;23.918;2022-09-13T17:36:27;71.00;;;66.90;;
41221;SDS011;26952;42.884;23.918;2022-09-13T17:38:56;70.07;;;66.47;;
41221;SDS011;26952;42.884;23.918;2022-09-13T17:41:22;75.65;;;71.82;;
41221;SDS011;26952;42.884;23.918;2022-09-13T17:43:49;72.35;;;68.75;;